Terminal Aerodrome Forecast
Issued by NWS

Home | Current Version | Previous Version | Text Only | Print | Product List | Glossary On
Versions: 1 2 3 4 5 6 7 8 9 10 11 12 13 14 15 16 17 18
000
FTUS41 KILN 180854 AAA
TAFLCK
TAF AMD
KLCK 180854Z 1809/1906 20008KT P6SM OVC015
      TEMPO 1809/1811 SCT015 OVC050
     FM181300 21009KT P6SM -DZ OVC008
     FM182200 23008KT P6SM OVC012=

USA.gov is the U.S. government's official web portal to all federal, state and local government web resources and services.